Time;durP1;ratioP1;P1;durP2;ratioP2;P2;SDS_P1;SDS_P2;PMS_P1;PMS_P2;Temp;Humidity;BMP_temperature;BMP_pressure;BME280_temperature;BME280_humidity;BME280_pressure;Samples;Min_cycle;Max_cycle;Signal;HPM_P1;HPM_P2
2021/07/14 00:01:52;;;;;;;3.83;3.30;;;16.30;99.90;;;;;;5013631;28;20483;-95
2021/07/14 00:04:19;;;;;;;3.90;3.30;;;16.30;99.90;;;;;;5018729;28;20491;-95
2021/07/14 00:06:46;;;;;;;3.23;2.93;;;16.30;99.90;;;;;;5019792;28;20447;-93
2021/07/14 00:09:16;;;;;;;2.80;2.60;;;16.30;99.90;;;;;;5012820;28;20440;-93
2021/07/14 00:11:53;;;;;;;2.77;2.50;;;16.20;99.90;;;;;;5015872;28;20777;-94
2021/07/14 00:14:35;;;;;;;3.43;2.60;;;16.20;99.90;;;;;;5012809;28;20458;-94
2021/07/14 00:17:24;;;;;;;3.17;2.33;;;16.30;99.90;;;;;;4999389;28;20448;-94
2021/07/14 00:22:38;;;;;;;2.60;2.40;;;16.30;99.90;;;;;;5004996;28;20434;-93
2021/07/14 00:25:24;;;;;;;3.50;2.57;;;16.40;99.90;;;;;;5009901;28;20473;-93
2021/07/14 00:27:52;;;;;;;2.70;2.50;;;16.40;99.90;;;;;;5000526;28;20481;-93
2021/07/14 00:30:28;;;;;;;3.93;3.60;;;16.30;99.90;;;;;;5008675;28;20484;-94
2021/07/14 00:32:56;;;;;;;3.20;2.90;;;16.30;99.90;;;;;;5010877;28;20450;-93
2021/07/14 00:35:26;;;;;;;4.40;3.80;;;16.20;99.90;;;;;;5005344;28;20474;-93
2021/07/14 00:37:59;;;;;;;3.00;2.70;;;16.20;99.90;;;;;;5005280;28;20471;-93
2021/07/14 00:40:28;;;;;;;4.10;2.87;;;16.10;99.90;;;;;;5005812;28;20896;-95
2021/07/14 00:42:58;;;;;;;3.70;3.33;;;16.10;99.90;;;;;;5003849;28;20506;-94
2021/07/14 00:45:25;;;;;;;3.57;3.27;;;16.00;99.90;;;;;;5003869;28;20501;-93
2021/07/14 00:47:56;;;;;;;3.70;3.40;;;16.00;99.90;;;;;;5004672;28;20472;-93
2021/07/14 00:50:24;;;;;;;3.63;3.30;;;16.00;99.90;;;;;;5004798;28;20483;-95
2021/07/14 00:52:51;;;;;;;3.63;2.93;;;15.90;99.90;;;;;;5002314;28;20454;-94
2021/07/14 00:55:18;;;;;;;3.40;2.93;;;15.90;99.90;;;;;;4987421;28;20459;-94
2021/07/14 00:57:51;;;;;;;3.00;2.80;;;15.90;99.90;;;;;;4995337;28;20506;-93
2021/07/14 01:00:18;;;;;;;4.03;3.70;;;15.90;99.90;;;;;;4994014;28;20519;-94
2021/07/14 01:02:46;;;;;;;3.57;3.30;;;15.90;99.90;;;;;;5007876;28;20457;-94
2021/07/14 01:05:19;;;;;;;7.27;3.20;;;15.90;99.90;;;;;;5009040;28;20438;-94
2021/07/14 01:07:54;;;;;;;3.60;3.30;;;15.90;99.90;;;;;;5007717;28;20453;-94
2021/07/14 01:10:29;;;;;;;4.37;3.13;;;15.80;99.90;;;;;;5060458;22;20509;-94
2021/07/14 01:13:07;;;;;;;5.60;3.30;;;15.80;99.90;;;;;;5018219;28;20509;-94
2021/07/14 01:18:27;;;;;;;3.33;3.13;;;15.70;99.90;;;;;;5016812;28;20438;-93
2021/07/14 01:21:02;;;;;;;3.40;3.10;;;15.80;99.90;;;;;;5029248;28;20459;-95
2021/07/14 01:23:45;;;;;;;5.07;3.40;;;15.80;99.90;;;;;;5019492;28;20451;-94
2021/07/14 01:26:31;;;;;;;4.60;3.90;;;15.70;99.90;;;;;;5017975;28;20439;-94
2021/07/14 01:29:06;;;;;;;6.60;4.43;;;15.70;99.90;;;;;;5028179;28;20427;-96
2021/07/14 01:31:35;;;;;;;6.80;5.43;;;15.70;99.90;;;;;;5025712;28;20478;-95
2021/07/14 01:34:06;;;;;;;11.67;6.27;;;15.70;99.90;;;;;;5029689;28;20432;-94
2021/07/14 01:36:37;;;;;;;7.10;6.30;;;15.70;99.90;;;;;;5069490;22;20482;-95
2021/07/14 01:39:06;;;;;;;6.57;5.77;;;15.70;99.90;;;;;;5023102;28;20431;-93
2021/07/14 01:41:38;;;;;;;10.40;6.97;;;15.70;99.90;;;;;;5014578;28;20451;-94
2021/07/14 01:44:09;;;;;;;7.30;6.60;;;15.80;99.90;;;;;;5014087;28;20433;-95
2021/07/14 01:46:38;;;;;;;7.37;5.37;;;15.80;99.90;;;;;;5018819;28;20448;-94
2021/07/14 01:49:14;;;;;;;7.43;5.80;;;15.90;99.90;;;;;;5013027;28;20455;-94
2021/07/14 01:51:47;;;;;;;6.10;5.53;;;15.90;99.90;;;;;;5009889;28;20479;-95
2021/07/14 01:54:16;;;;;;;6.30;5.40;;;15.90;99.90;;;;;;4994650;28;20467;-94
2021/07/14 01:56:45;;;;;;;5.93;5.00;;;16.00;99.90;;;;;;5009782;28;20451;-93
2021/07/14 01:59:14;;;;;;;8.20;4.10;;;16.00;99.90;;;;;;5004867;28;20460;-93
2021/07/14 02:01:44;;;;;;;7.23;5.60;;;16.10;99.90;;;;;;5003354;28;20470;-93
2021/07/14 02:04:34;;;;;;;5.87;4.90;;;16.10;99.90;;;;;;5014204;28;20479;-94
2021/07/14 02:07:10;;;;;;;10.47;4.97;;;16.00;99.90;;;;;;5009036;28;20449;-93
2021/07/14 02:09:40;;;;;;;7.67;4.80;;;16.00;99.90;;;;;;5005923;28;20462;-94
2021/07/14 02:12:11;;;;;;;6.80;4.73;;;16.00;99.90;;;;;;5016319;28;20490;-94
2021/07/14 02:14:46;;;;;;;5.70;4.70;;;16.00;99.90;;;;;;5014598;28;20444;-94
2021/07/14 02:17:16;;;;;;;5.00;4.30;;;16.10;99.90;;;;;;5009260;28;20470;-94
2021/07/14 02:20:02;;;;;;;5.10;4.60;;;16.00;99.90;;;;;;5003943;28;20451;-94
2021/07/14 02:22:30;;;;;;;5.53;4.70;;;16.10;99.90;;;;;;5006080;28;20503;-94
2021/07/14 02:24:59;;;;;;;5.90;5.27;;;16.10;99.90;;;;;;5017988;28;20463;-95
2021/07/14 02:27:32;;;;;;;9.80;4.77;;;16.10;99.90;;;;;;5012337;28;20531;-93
2021/07/14 02:30:15;;;;;;;6.00;4.40;;;16.00;99.90;;;;;;5016535;28;20451;-95
2021/07/14 02:32:47;;;;;;;5.03;4.50;;;15.90;99.90;;;;;;5003585;28;20487;-93
2021/07/14 02:35:16;;;;;;;5.77;4.63;;;15.80;99.90;;;;;;5002423;28;20517;-95
2021/07/14 02:37:51;;;;;;;9.33;5.97;;;15.90;99.90;;;;;;5004201;28;20443;-94
2021/07/14 02:40:29;;;;;;;8.33;5.00;;;15.80;99.90;;;;;;5007444;28;20462;-94
2021/07/14 02:45:47;;;;;;;6.07;4.40;;;15.80;99.90;;;;;;5005165;28;20441;-94
2021/07/14 02:48:15;;;;;;;4.93;3.90;;;15.80;99.90;;;;;;5004573;28;20474;-94
2021/07/14 02:50:45;;;;;;;4.67;4.27;;;15.80;99.90;;;;;;5003704;28;20486;-94
2021/07/14 02:53:20;;;;;;;6.90;4.57;;;15.80;99.90;;;;;;5004838;28;20498;-94
2021/07/14 02:55:54;;;;;;;6.57;4.40;;;15.80;99.90;;;;;;5004519;28;20446;-94
2021/07/14 03:01:18;;;;;;;6.57;4.57;;;15.70;99.90;;;;;;5005073;28;20446;-94
2021/07/14 03:06:42;;;;;;;5.80;4.10;;;15.60;99.90;;;;;;5006863;28;20514;-93
2021/07/14 03:09:12;;;;;;;4.77;4.27;;;15.60;99.90;;;;;;5017584;28;20498;-95
2021/07/14 03:12:03;;;;;;;8.27;4.47;;;15.60;99.90;;;;;;5121098;22;20494;-93
2021/07/14 03:14:32;;;;;;;6.30;3.87;;;15.60;99.90;;;;;;5012961;28;20450;-93
2021/07/14 03:17:04;;;;;;;8.60;4.30;;;15.60;99.90;;;;;;5009056;28;20865;-94
2021/07/14 03:19:35;;;;;;;8.07;5.23;;;15.60;99.90;;;;;;5031288;28;20450;-94
2021/07/14 03:38:13;;;;;;;5.57;5.00;;;15.50;99.90;;;;;;6167444;23;20536;-94
2021/07/14 03:40:54;;;;;;;5.57;4.37;;;15.60;99.90;;;;;;6182137;23;20442;-93
2021/07/14 03:43:31;;;;;;;8.70;5.17;;;15.60;99.90;;;;;;6145989;23;20485;-93
2021/07/14 03:46:04;;;;;;;5.03;4.57;;;15.60;99.90;;;;;;6154627;23;20400;-94
2021/07/14 04:00:08;;;;;;;5.47;4.67;;;15.70;99.90;;;;;;6030334;23;20497;-92
2021/07/14 04:03:14;;;;;;;;;;;;;;;;;;;;;
2021/07/14 04:16:01;;;;;;;3.97;3.57;;;15.80;99.90;;;;;;6056589;23;20408;-93
2021/07/14 04:25:09;;;;;;;15.53;5.33;;;15.90;99.90;;;;;;6138380;23;20436;-93
2021/07/14 05:39:43;;;;;;;;;;;;;;;;;;;;;
2021/07/14 05:49:55;;;;;;;8.57;5.60;;;16.70;99.90;;;;;;5848432;24;20403;-92
2021/07/14 06:07:04;;;;;;;7.93;4.90;;;16.90;99.90;;;;;;6138570;23;20431;-91
2021/07/14 06:09:30;;;;;;;6.50;5.57;;;16.90;99.90;;;;;;6130479;23;20449;-90
2021/07/14 06:11:57;;;;;;;7.20;6.27;;;16.90;99.90;;;;;;6129524;23;20408;-90
2021/07/14 06:14:25;;;;;;;16.20;5.73;;;17.00;99.90;;;;;;6129710;23;20951;-91
2021/07/14 06:16:52;;;;;;;7.77;6.57;;;17.00;99.90;;;;;;6130652;23;20421;-92
2021/07/14 06:19:19;;;;;;;7.00;5.80;;;17.10;99.90;;;;;;6130500;23;20987;-90
2021/07/14 06:21:47;;;;;;;8.77;5.47;;;17.10;99.90;;;;;;6129356;23;20961;-92
2021/07/14 06:24:15;;;;;;;8.93;5.53;;;17.10;99.90;;;;;;6128490;23;20428;-90
2021/07/14 06:26:42;;;;;;;4.80;4.30;;;17.10;99.90;;;;;;6128874;23;20437;-90
2021/07/14 06:29:09;;;;;;;8.97;6.10;;;17.10;99.90;;;;;;6131606;23;20942;-91
2021/07/14 06:31:36;;;;;;;5.90;5.00;;;17.10;99.90;;;;;;6131128;23;20425;-91
2021/07/14 06:34:03;;;;;;;9.13;4.73;;;17.10;99.90;;;;;;6133027;23;20411;-91
2021/07/14 06:36:30;;;;;;;5.93;5.43;;;17.20;99.90;;;;;;6131750;23;20392;-90
2021/07/14 06:39:01;;;;;;;5.83;5.23;;;17.20;99.90;;;;;;6134046;23;20737;-91
2021/07/14 06:41:29;;;;;;;9.13;6.03;;;17.20;99.90;;;;;;6134444;23;20495;-90
2021/07/14 06:43:59;;;;;;;9.03;5.70;;;17.20;99.90;;;;;;6128840;23;20435;-90
2021/07/14 06:46:26;;;;;;;5.97;5.33;;;17.20;99.90;;;;;;6130737;23;20402;-90
2021/07/14 06:48:53;;;;;;;5.40;4.60;;;17.30;99.90;;;;;;6138275;23;20539;-91
2021/07/14 06:51:20;;;;;;;6.60;4.30;;;17.30;99.90;;;;;;6130595;23;20750;-91
2021/07/14 06:53:47;;;;;;;8.30;4.33;;;17.30;99.90;;;;;;6146060;23;20416;-91
2021/07/14 06:56:14;;;;;;;4.83;4.33;;;17.30;99.90;;;;;;6140555;23;20423;-90
2021/07/14 06:58:42;;;;;;;6.30;4.00;;;17.30;99.90;;;;;;6143542;23;20417;-91
2021/07/14 07:01:11;;;;;;;5.03;4.60;;;17.40;99.90;;;;;;6136492;23;20484;-91
2021/07/14 07:17:05;;;;;;;5.00;4.15;;;17.40;99.90;;;;;;6124137;22;2764080;-91
2021/07/14 07:19:32;;;;;;;5.93;4.40;;;17.50;99.90;;;;;;6240907;23;20172;-90
2021/07/14 07:22:01;;;;;;;6.60;4.53;;;17.50;99.90;;;;;;6246425;23;20394;-91
2021/07/14 07:24:28;;;;;;;9.20;6.87;;;17.50;99.90;;;;;;6251100;23;20429;-91
2021/07/14 07:29:36;;;;;;;5.47;4.97;;;17.60;99.90;;;;;;6249471;23;20396;-91
2021/07/14 07:34:50;;;;;;;4.70;4.30;;;17.70;99.90;;;;;;6240932;22;20846;-90
2021/07/14 07:37:16;;;;;;;4.20;3.80;;;17.70;99.90;;;;;;6257417;23;20404;-89
2021/07/14 07:39:45;;;;;;;6.67;4.30;;;17.70;99.90;;;;;;6261295;23;20390;-91
2021/07/14 07:42:11;;;;;;;5.13;4.43;;;17.70;99.90;;;;;;6257554;23;20504;-90
2021/07/14 07:44:38;;;;;;;7.17;4.53;;;17.80;99.90;;;;;;6257138;22;20959;-91
2021/07/14 07:47:07;;;;;;;10.80;5.20;;;17.80;99.90;;;;;;6257388;23;20407;-90
2021/07/14 07:49:34;;;;;;;12.20;5.50;;;17.80;99.90;;;;;;6257365;23;20402;-90
2021/07/14 07:52:01;;;;;;;6.67;5.70;;;17.80;99.90;;;;;;6261678;23;20414;-90
2021/07/14 07:54:29;;;;;;;4.47;4.03;;;17.70;99.90;;;;;;6276586;22;20423;-89
2021/07/14 07:56:55;;;;;;;6.67;4.40;;;17.70;99.90;;;;;;6282382;22;20403;-88
2021/07/14 07:59:22;;;;;;;4.83;4.43;;;17.70;99.90;;;;;;6278266;22;20403;-89
2021/07/14 08:01:49;;;;;;;8.47;5.47;;;17.80;99.90;;;;;;6273714;22;20403;-89
2021/07/14 08:04:18;;;;;;;5.00;4.60;;;17.80;99.90;;;;;;6272729;22;20452;-89
2021/07/14 08:06:44;;;;;;;7.73;4.40;;;17.90;99.90;;;;;;6269630;23;20862;-90
2021/07/14 08:09:11;;;;;;;4.50;4.10;;;17.90;99.90;;;;;;6260619;23;20414;-89
2021/07/14 08:11:38;;;;;;;3.50;3.03;;;17.90;99.90;;;;;;6260163;23;20468;-89
2021/07/14 08:14:05;;;;;;;6.10;5.50;;;17.80;99.90;;;;;;6267492;22;20465;-87
2021/07/14 08:16:31;;;;;;;6.23;4.90;;;17.80;99.90;;;;;;6269893;22;20481;-89
2021/07/14 08:18:59;;;;;;;7.60;5.67;;;17.80;99.90;;;;;;6265454;22;20418;-87
2021/07/14 08:21:29;;;;;;;7.77;6.80;;;17.80;99.90;;;;;;6261716;22;20424;-88
2021/07/14 08:23:56;;;;;;;11.10;7.87;;;17.80;99.90;;;;;;6256632;22;20457;-88
2021/07/14 08:26:22;;;;;;;7.77;5.27;;;17.80;99.90;;;;;;6251577;23;20433;-89
2021/07/14 08:28:49;;;;;;;5.63;4.40;;;17.70;99.90;;;;;;6251140;23;20404;-90
2021/07/14 08:31:16;;;;;;;5.60;4.30;;;17.70;99.90;;;;;;6250661;23;20512;-90
2021/07/14 08:33:43;;;;;;;10.27;4.87;;;17.70;99.90;;;;;;6252637;23;20392;-91
2021/07/14 08:36:10;;;;;;;6.30;4.97;;;17.80;99.90;;;;;;6251360;22;20430;-90
2021/07/14 08:38:39;;;;;;;11.50;5.00;;;17.80;99.90;;;;;;6256679;23;20480;-91
2021/07/14 08:41:10;;;;;;;8.50;4.83;;;17.80;99.90;;;;;;6253515;23;20401;-90
2021/07/14 08:43:41;;;;;;;6.33;4.40;;;17.90;99.90;;;;;;6253692;23;20413;-90
2021/07/14 08:46:08;;;;;;;8.27;4.77;;;17.90;99.90;;;;;;6258909;22;20440;-88
2021/07/14 08:48:35;;;;;;;5.00;4.50;;;18.10;99.90;;;;;;6256506;23;20495;-89
2021/07/14 08:51:04;;;;;;;8.40;5.70;;;18.20;99.90;;;;;;6259342;23;20410;-89
2021/07/14 08:53:33;;;;;;;7.07;5.97;;;18.20;99.90;;;;;;6269202;23;20402;-89
2021/07/14 08:56:02;;;;;;;5.37;4.87;;;18.10;99.90;;;;;;6274098;22;20424;-90
2021/07/14 08:58:30;;;;;;;5.83;4.60;;;18.20;99.90;;;;;;6271582;22;20408;-90
2021/07/14 09:01:01;;;;;;;5.43;4.93;;;18.20;99.90;;;;;;6270307;23;20478;-90
2021/07/14 09:03:31;;;;;;;5.80;5.30;;;18.20;99.90;;;;;;6266435;23;20416;-90
2021/07/14 09:05:58;;;;;;;6.63;5.53;;;18.30;99.90;;;;;;6264873;22;20463;-89
2021/07/14 09:08:25;;;;;;;8.87;7.20;;;18.50;99.90;;;;;;6271573;22;20407;-90
2021/07/14 09:10:52;;;;;;;6.50;5.20;;;18.50;99.90;;;;;;6267175;22;20473;-88
2021/07/14 09:13:33;;;;;;;6.20;5.60;;;18.50;99.90;;;;;;6261091;22;20408;-88
2021/07/14 09:16:00;;;;;;;6.37;3.53;;;18.60;99.90;;;;;;6253224;22;20436;-89
2021/07/14 09:18:29;;;;;;;8.20;4.30;;;18.70;99.90;;;;;;6254894;23;20471;-89
2021/07/14 09:20:57;;;;;;;6.57;3.80;;;18.70;99.90;;;;;;6255477;23;20408;-90
2021/07/14 09:23:26;;;;;;;6.60;5.00;;;18.80;99.90;;;;;;6255467;23;20429;-90
2021/07/14 09:25:55;;;;;;;8.30;4.50;;;18.90;99.90;;;;;;6252306;22;20440;-90
2021/07/14 09:28:27;;;;;;;5.90;5.20;;;19.10;99.90;;;;;;6248818;23;20403;-91
2021/07/14 09:31:02;;;;;;;15.83;5.87;;;19.30;99.90;;;;;;6250172;23;20435;-90
2021/07/14 09:33:29;;;;;;;6.90;5.10;;;19.30;99.90;;;;;;6249542;23;20375;-89
2021/07/14 09:35:59;;;;;;;7.70;5.87;;;19.20;99.90;;;;;;6255028;22;20931;-90
2021/07/14 09:38:28;;;;;;;6.63;4.77;;;19.20;99.90;;;;;;6261364;22;20397;-88
2021/07/14 09:40:57;;;;;;;10.00;4.97;;;19.20;99.90;;;;;;6257451;22;20493;-89
2021/07/14 09:43:27;;;;;;;7.43;5.30;;;19.30;99.90;;;;;;6250335;23;20396;-89
2021/07/14 09:45:54;;;;;;;7.47;5.83;;;19.50;99.90;;;;;;6254986;22;20474;-88
2021/07/14 09:48:26;;;;;;;9.30;5.47;;;19.70;99.90;;;;;;6250553;23;20418;-88
2021/07/14 09:50:56;;;;;;;5.60;5.03;;;19.70;99.90;;;;;;6248847;23;20400;-88
2021/07/14 09:53:29;;;;;;;5.30;4.80;;;19.80;99.90;;;;;;6251984;23;20469;-87
2021/07/14 09:55:58;;;;;;;11.10;6.50;;;19.80;99.90;;;;;;6261700;22;20433;-88
2021/07/14 09:58:28;;;;;;;7.63;5.37;;;20.00;99.90;;;;;;6264694;23;20427;-88
2021/07/14 10:00:57;;;;;;;8.13;5.23;;;20.10;99.90;;;;;;6273258;22;20373;-88
2021/07/14 10:03:29;;;;;;;8.70;5.60;;;20.30;99.90;;;;;;6255070;23;20406;-88
2021/07/14 10:06:05;;;;;;;8.40;5.00;;;20.50;99.90;;;;;;6251107;22;20445;-87
2021/07/14 10:08:33;;;;;;;10.60;6.17;;;20.60;99.90;;;;;;6250636;23;20403;-89
2021/07/14 10:11:17;;;;;;;8.40;5.40;;;20.70;99.90;;;;;;6253849;23;20407;-89
2021/07/14 10:13:55;;;;;;;6.83;4.70;;;20.90;99.90;;;;;;6255967;23;20462;-88
2021/07/14 10:16:23;;;;;;;6.10;4.47;;;21.30;99.90;;;;;;6253845;23;20413;-89
2021/07/14 10:19:03;;;;;;;9.20;4.57;;;21.60;99.90;;;;;;6254020;23;20511;-91
2021/07/14 10:21:32;;;;;;;5.00;4.60;;;22.00;99.90;;;;;;6253205;23;20392;-87
2021/07/14 10:24:00;;;;;;;4.57;4.20;;;22.60;99.90;;;;;;6254385;22;20436;-88
2021/07/14 10:26:27;;;;;;;4.60;4.03;;;22.80;99.90;;;;;;6254083;23;20497;-88
2021/07/14 10:28:57;;;;;;;5.60;4.20;;;23.30;99.90;;;;;;6255603;23;20400;-88
2021/07/14 10:31:24;;;;;;;4.43;4.00;;;23.70;99.60;;;;;;6254141;23;20890;-89
2021/07/14 10:33:53;;;;;;;4.07;3.67;;;24.40;98.70;;;;;;6267183;22;20386;-89
2021/07/14 10:36:30;;;;;;;3.80;2.93;;;24.20;97.30;;;;;;6257808;23;20506;-89
2021/07/14 10:39:01;;;;;;;3.00;2.80;;;24.00;97.70;;;;;;6264452;23;20406;-90
2021/07/14 10:41:30;;;;;;;3.77;3.47;;;23.90;96.50;;;;;;6259974;23;20388;-89
2021/07/14 10:43:59;;;;;;;4.83;3.60;;;23.90;97.30;;;;;;6254576;22;20399;-89
2021/07/14 10:46:28;;;;;;;3.67;3.23;;;24.20;96.20;;;;;;6251672;23;20442;-89
2021/07/14 10:48:57;;;;;;;3.17;2.93;;;24.30;96.20;;;;;;6262300;22;20484;-88
2021/07/14 10:51:26;;;;;;;3.80;3.40;;;24.20;94.80;;;;;;6265092;22;20399;-88
2021/07/14 10:53:57;;;;;;;2.87;2.50;;;24.20;95.20;;;;;;6264910;22;20475;-89
2021/07/14 10:56:25;;;;;;;6.87;3.10;;;24.30;93.70;;;;;;6261295;22;20388;-90
2021/07/14 10:58:53;;;;;;;3.10;2.10;;;24.40;93.20;;;;;;6256406;23;20391;-89
2021/07/14 11:01:41;;;;;;;2.57;1.80;;;24.40;93.20;;;;;;6251240;23;20423;-88
2021/07/14 11:04:12;;;;;;;2.77;2.57;;;23.70;93.00;;;;;;6262681;22;20426;-88
2021/07/14 11:06:57;;;;;;;2.37;2.17;;;23.60;93.90;;;;;;6264750;23;20476;-89
2021/07/14 11:09:36;;;;;;;3.53;3.23;;;23.80;94.00;;;;;;6260729;23;20397;-87
2021/07/14 11:12:05;;;;;;;3.07;2.77;;;24.50;93.40;;;;;;6231083;23;20468;-88
2021/07/14 11:14:36;;;;;;;2.57;2.37;;;25.40;91.60;;;;;;6227128;23;20523;-87
2021/07/14 11:17:05;;;;;;;2.60;2.00;;;25.40;91.10;;;;;;6223632;23;20397;-88
2021/07/14 11:19:48;;;;;;;3.33;2.67;;;25.10;91.10;;;;;;6220710;23;20412;-89
2021/07/14 11:22:15;;;;;;;4.17;2.70;;;24.60;91.20;;;;;;6222091;23;20413;-88
2021/07/14 11:24:59;;;;;;;4.17;2.80;;;24.50;92.20;;;;;;6224486;23;20435;-89
2021/07/14 11:27:46;;;;;;;3.57;2.13;;;24.60;91.60;;;;;;6222211;23;20756;-87
2021/07/14 11:30:28;;;;;;;2.90;2.57;;;24.80;91.70;;;;;;6221734;23;20389;-88
2021/07/14 11:32:59;;;;;;;2.97;2.60;;;25.20;90.80;;;;;;6222431;23;20416;-89
2021/07/14 11:35:35;;;;;;;2.60;2.40;;;25.60;90.90;;;;;;6223052;23;20444;-88
2021/07/14 11:38:06;;;;;;;3.27;2.70;;;25.80;89.20;;;;;;6224806;23;20436;-88
2021/07/14 11:40:40;;;;;;;4.93;4.43;;;25.90;87.00;;;;;;6219172;23;20927;-89
2021/07/14 11:43:28;;;;;;;2.80;2.60;;;26.00;87.30;;;;;;6219426;23;20504;-90
2021/07/14 11:45:57;;;;;;;1.70;1.60;;;26.30;83.20;;;;;;6221907;23;20447;-91
2021/07/14 11:48:36;;;;;;;2.33;2.13;;;26.10;83.10;;;;;;6225324;23;20432;-89
2021/07/14 11:51:05;;;;;;;3.03;2.30;;;26.60;83.20;;;;;;6226032;23;20402;-89
2021/07/14 11:53:39;;;;;;;2.30;1.97;;;27.50;79.50;;;;;;6224739;23;20405;-89
2021/07/14 11:56:12;;;;;;;1.90;1.80;;;27.50;77.70;;;;;;6229993;23;20424;-90
2021/07/14 11:59:00;;;;;;;2.20;2.00;;;26.50;79.40;;;;;;6222524;23;20390;-89
2021/07/14 12:01:52;;;;;;;1.80;1.63;;;26.80;79.80;;;;;;6222431;23;20378;-89
2021/07/14 12:04:23;;;;;;;2.97;1.70;;;27.00;76.80;;;;;;6239694;23;20407;-89
2021/07/14 12:06:55;;;;;;;3.30;1.90;;;26.60;78.30;;;;;;6243827;23;20429;-83
2021/07/14 12:09:36;;;;;;;1.93;1.83;;;26.00;80.80;;;;;;6230354;23;20417;-84
2021/07/14 12:12:06;;;;;;;2.10;1.90;;;25.50;81.30;;;;;;6226532;23;20420;-84
2021/07/14 12:14:49;;;;;;;1.77;1.67;;;25.50;80.50;;;;;;6224334;23;20784;-84
2021/07/14 12:17:24;;;;;;;2.60;2.30;;;25.80;80.00;;;;;;6223973;23;20409;-84
2021/07/14 12:20:44;;;;;;;1.60;1.50;;;26.40;80.50;;;;;;6225203;23;20412;-83
2021/07/14 12:23:23;;;;;;;1.90;1.50;;;25.70;77.80;;;;;;6222582;23;20529;-84
2021/07/14 12:26:07;;;;;;;1.60;1.50;;;24.50;80.00;;;;;;6223198;23;20435;-84
2021/07/14 12:28:42;;;;;;;3.63;1.40;;;24.30;82.90;;;;;;6222649;23;20431;-84
2021/07/14 12:31:24;;;;;;;2.17;1.97;;;24.40;83.80;;;;;;6224023;23;20474;-84
2021/07/14 12:33:56;;;;;;;1.90;1.70;;;24.30;84.80;;;;;;6232436;23;20376;-84
2021/07/14 12:36:28;;;;;;;2.33;1.30;;;24.30;85.20;;;;;;6226936;23;20909;-84
2021/07/14 12:38:58;;;;;;;1.50;1.40;;;24.20;83.50;;;;;;6229014;23;20403;-84
2021/07/14 12:41:33;;;;;;;1.97;1.70;;;24.30;84.10;;;;;;6236542;23;20399;-84
2021/07/14 12:44:12;;;;;;;2.40;1.60;;;24.20;84.10;;;;;;6234813;23;20391;-83
2021/07/14 12:46:48;;;;;;;1.60;1.50;;;23.90;83.80;;;;;;6230753;23;20870;-83
2021/07/14 12:49:25;;;;;;;2.00;1.80;;;24.40;85.40;;;;;;6224905;23;20451;-84
2021/07/14 12:52:16;;;;;;;3.60;3.03;;;24.80;82.00;;;;;;6227837;23;20416;-84
2021/07/14 12:54:48;;;;;;;3.10;2.90;;;25.50;82.10;;;;;;6226221;23;20487;-84
2021/07/14 13:01:25;;;;;;;1.80;1.70;;;26.00;79.70;;;;;;6072714;23;20437;-84
2021/07/14 13:04:01;;;;;;;2.60;1.37;;;26.20;77.90;;;;;;6183748;23;20405;-84
2021/07/14 13:07:17;;;;;;;1.87;1.70;;;26.00;78.40;;;;;;6225101;23;20440;-84
2021/07/14 13:09:49;;;;;;;3.10;2.23;;;26.50;78.10;;;;;;6227850;23;20409;-84
2021/07/14 13:12:22;;;;;;;2.80;2.37;;;27.30;76.10;;;;;;6226413;23;20417;-84
2021/07/14 13:15:00;;;;;;;2.10;1.90;;;27.80;74.00;;;;;;6224544;23;20827;-84
2021/07/14 13:17:36;;;;;;;2.03;1.60;;;28.30;73.00;;;;;;6234474;23;20412;-84
2021/07/14 13:23:09;;;;;;;2.50;2.30;;;28.30;72.20;;;;;;6224878;23;20476;-84
2021/07/14 13:25:59;;;;;;;3.60;3.30;;;28.30;71.60;;;;;;6224175;23;20485;-84
2021/07/14 13:28:30;;;;;;;3.10;2.80;;;28.20;69.80;;;;;;6224343;23;20793;-84
2021/07/14 13:31:07;;;;;;;3.00;1.70;;;27.80;71.20;;;;;;6223362;23;20472;-84
2021/07/14 13:33:41;;;;;;;1.70;1.60;;;27.20;73.10;;;;;;6231538;23;20373;-84
2021/07/14 14:10:20;;;;;;;4.50;2.37;;;27.10;73.00;;;;;;5111848;28;20462;-92
2021/07/14 14:13:38;;;;;;;1.43;1.33;;;28.90;68.30;;;;;;5100848;28;20451;-91
2021/07/14 14:17:03;;;;;;;4.80;4.40;;;27.70;69.80;;;;;;5131587;28;20472;-94
2021/07/14 14:20:15;;;;;;;2.60;2.33;;;27.10;72.00;;;;;;5144492;28;20561;-92
2021/07/14 14:28:45;;;;;;;1.60;1.50;;;29.00;65.70;;;;;;4147145;26;20466;-91
2021/07/14 14:31:40;;;;;;;;;;;;;;;;;;;;;
2021/07/14 14:34:51;;;;;;;1.67;1.40;;;29.50;63.10;;;;;;5086730;28;20440;-94
2021/07/14 14:37:45;;;;;;;1.40;1.30;;;29.00;63.00;;;;;;5063412;28;20468;-91
2021/07/14 14:40:48;;;;;;;2.47;1.50;;;28.00;64.80;;;;;;5046923;28;20498;-91
2021/07/14 14:43:46;;;;;;;1.57;1.30;;;26.80;69.20;;;;;;5064791;28;20458;-90
2021/07/14 16:27:33;;;;;;;2.10;2.00;;;24.40;87.50;;;;;;4741405;29;20478;-92
2021/07/14 16:31:08;;;;;;;2.80;2.13;;;24.50;88.10;;;;;;4770350;30;20446;-92
2021/07/14 17:43:51;;;;;;;2.93;2.20;;;23.00;92.80;;;;;;4856772;26;20475;-91
2021/07/14 17:46:31;;;;;;;3.03;2.80;;;22.90;93.00;;;;;;5028109;28;20460;-90
2021/07/14 17:48:59;;;;;;;2.37;2.17;;;22.90;93.30;;;;;;5031539;28;20462;-90
2021/07/14 17:51:27;;;;;;;2.20;2.00;;;22.80;93.70;;;;;;5044712;28;20426;-91
2021/07/14 17:53:54;;;;;;;2.00;1.90;;;22.80;94.00;;;;;;5035131;28;20429;-90
2021/07/14 17:56:27;;;;;;;3.00;2.80;;;22.70;94.20;;;;;;5042070;28;20460;-91
2021/07/14 17:58:59;;;;;;;2.60;2.40;;;22.70;94.20;;;;;;5032770;28;20469;-90
2021/07/14 18:01:30;;;;;;;2.67;2.47;;;22.60;94.50;;;;;;5037478;28;20439;-90
2021/07/14 18:03:59;;;;;;;2.10;1.90;;;22.60;94.80;;;;;;5043887;28;20690;-89
2021/07/14 18:06:56;;;;;;;2.20;2.00;;;22.60;95.00;;;;;;5044622;28;20477;-91
2021/07/14 18:10:27;;;;;;;;;;;;;;;;;;;;;
2021/07/14 18:13:34;;;;;;;2.60;2.00;;;22.30;95.70;;;;;;5042684;28;20455;-91
2021/07/14 19:43:10;;;;;;;2.00;1.90;;;20.10;99.90;;;;;;5067963;22;20490;-93
2021/07/14 19:49:12;;;;;;;6.63;4.60;;;20.00;99.90;;;;;;5057592;28;20441;-92
2021/07/14 19:51:45;;;;;;;2.70;2.40;;;20.00;99.90;;;;;;5057919;28;20511;-92
2021/07/14 20:11:16;;;;;;;1.00;0.70;;;19.70;99.90;;;;;;5083591;22;20512;-89
2021/07/14 20:13:44;;;;;;;0.90;0.70;;;19.70;99.90;;;;;;5044390;28;20456;-89
2021/07/14 20:16:11;;;;;;;1.10;0.90;;;19.60;99.90;;;;;;5041015;28;20488;-89
2021/07/14 20:18:38;;;;;;;1.00;0.60;;;19.50;99.90;;;;;;5020388;28;20451;-89
2021/07/14 20:21:05;;;;;;;1.80;0.83;;;19.40;99.90;;;;;;5023309;28;20496;-89
2021/07/14 20:23:32;;;;;;;2.20;0.80;;;19.30;99.90;;;;;;5024706;28;20480;-88
2021/07/14 20:25:59;;;;;;;1.90;0.90;;;19.20;99.90;;;;;;5021927;28;20518;-91
2021/07/14 20:28:28;;;;;;;1.00;0.80;;;19.10;99.90;;;;;;5023844;28;21015;-90
2021/07/14 20:30:56;;;;;;;6.30;4.97;;;19.10;99.90;;;;;;5022963;28;20470;-90
2021/07/14 20:33:23;;;;;;;1.63;1.27;;;18.90;99.90;;;;;;5025140;28;20453;-89
2021/07/14 20:35:50;;;;;;;0.97;0.80;;;18.90;99.90;;;;;;5021892;28;20475;-90
2021/07/14 20:38:16;;;;;;;0.70;0.60;;;18.80;99.90;;;;;;5022354;28;20498;-90
2021/07/14 20:40:54;;;;;;;0.97;0.83;;;18.80;99.90;;;;;;5028378;28;20470;-91
2021/07/14 21:31:50;;;;;;;1.60;0.90;;;18.50;99.90;;;;;;4998703;28;20436;-91
2021/07/14 21:34:17;;;;;;;1.53;0.70;;;18.40;99.90;;;;;;5067021;22;20478;-88
2021/07/14 21:36:51;;;;;;;0.80;0.60;;;18.40;99.90;;;;;;5035921;28;21091;-88
2021/07/14 21:39:18;;;;;;;1.40;0.60;;;18.40;99.90;;;;;;5036730;28;20450;-89
2021/07/14 21:41:49;;;;;;;4.80;0.80;;;18.30;99.90;;;;;;5029167;28;20872;-88
2021/07/14 21:44:19;;;;;;;4.10;1.87;;;18.30;99.90;;;;;;5037387;28;20470;-88
2021/07/14 21:46:49;;;;;;;0.70;0.50;;;18.30;99.90;;;;;;5048213;28;20475;-88
2021/07/14 21:49:18;;;;;;;0.80;0.77;;;18.20;99.90;;;;;;5043776;28;20445;-88
2021/07/14 21:51:47;;;;;;;0.87;0.83;;;18.20;99.90;;;;;;5041765;28;20450;-88
2021/07/14 22:14:27;;;;;;;1.50;0.90;;;17.80;99.90;;;;;;4955653;28;20507;-89
2021/07/14 22:20:53;;;;;;;0.90;0.70;;;17.80;99.90;;;;;;5025194;28;20504;-89
2021/07/14 23:36:34;;;;;;;0.60;0.43;;;18.10;99.90;;;;;;3872844;22;20513;-87
2021/07/14 23:53:53;;;;;;;;;;;;;;;;;;;;;
